Time;durP1;ratioP1;P1;durP2;ratioP2;P2;SDS_P1;SDS_P2;PMS_P1;PMS_P2;Temp;Humidity;BMP_temperature;BMP_pressure;BME280_temperature;BME280_humidity;BME280_pressure;Samples;Min_cycle;Max_cycle;Signal;HPM_P1;HPM_P2
2022/04/06 00:00:14;;;;;;;61.83;31.00;;;;;;;;;;4938532;29;20106;-53
2022/04/06 00:02:40;;;;;;;59.70;32.33;;;;;;;;;;4939055;29;20067;-54
2022/04/06 00:05:11;;;;;;;47.30;26.55;;;;;;;;;;4938431;29;20031;-54
2022/04/06 00:07:41;;;;;;;49.13;26.15;;;;;;;;;;4938828;29;20102;-54
2022/04/06 00:10:08;;;;;;;51.53;29.02;;;;;;;;;;4938747;29;20135;-54
2022/04/06 00:12:34;;;;;;;70.18;36.47;;;;;;;;;;4938161;29;20030;-52
2022/04/06 00:15:01;;;;;;;76.35;37.53;;;;;;;;;;4938380;29;20115;-53
2022/04/06 00:17:27;;;;;;;67.88;37.00;;;;;;;;;;4938199;29;20032;-53
2022/04/06 00:19:53;;;;;;;59.90;32.42;;;;;;;;;;4937989;29;20086;-54
2022/04/06 00:22:20;;;;;;;64.43;32.72;;;;;;;;;;4938370;29;20034;-52
2022/04/06 00:24:47;;;;;;;55.85;32.50;;;;;;;;;;4937872;29;20163;-53
2022/04/06 00:27:14;;;;;;;35.83;19.52;;;;;;;;;;4937695;29;20031;-53
2022/04/06 00:29:40;;;;;;;26.20;14.50;;;;;;;;;;4938578;29;20119;-52
2022/04/06 00:32:06;;;;;;;30.45;17.33;;;;;;;;;;4938225;29;20393;-54
2022/04/06 00:37:17;;;;;;;23.25;12.65;;;;;;;;;;4936709;29;20116;-51
2022/04/06 00:39:43;;;;;;;28.85;14.35;;;;;;;;;;4937224;29;20095;-51
2022/04/06 00:42:09;;;;;;;26.58;15.77;;;;;;;;;;4937812;29;20106;-54
2022/04/06 00:44:36;;;;;;;36.75;18.52;;;;;;;;;;4937529;29;20381;-54
2022/04/06 00:47:03;;;;;;;24.17;13.95;;;;;;;;;;4937408;29;20476;-54
2022/04/06 00:49:29;;;;;;;43.38;20.83;;;;;;;;;;4937681;29;20028;-53
2022/04/06 00:51:55;;;;;;;43.03;21.52;;;;;;;;;;4937628;29;20134;-55
2022/04/06 00:54:23;;;;;;;43.53;20.67;;;;;;;;;;4937047;29;20429;-55
2022/04/06 00:56:49;;;;;;;32.65;14.07;;;;;;;;;;4937435;29;20020;-49
2022/04/06 00:59:19;;;;;;;26.33;13.35;;;;;;;;;;4937484;29;20039;-54
2022/04/06 01:01:46;;;;;;;25.02;12.40;;;;;;;;;;4936908;29;20110;-51
2022/04/06 01:04:12;;;;;;;22.50;12.77;;;;;;;;;;4937469;29;20473;-50
2022/04/06 01:06:39;;;;;;;39.72;22.40;;;;;;;;;;4937509;29;20028;-53
2022/04/06 01:09:05;;;;;;;49.55;25.02;;;;;;;;;;4937071;29;20027;-53
2022/04/06 01:11:31;;;;;;;39.40;21.55;;;;;;;;;;4937294;29;20047;-52
2022/04/06 01:13:58;;;;;;;35.35;18.90;;;;;;;;;;4937536;29;20364;-53
2022/04/06 01:16:24;;;;;;;37.80;20.63;;;;;;;;;;4936850;29;20115;-51
2022/04/06 01:18:50;;;;;;;34.45;18.08;;;;;;;;;;4936972;29;20028;-51
2022/04/06 01:21:16;;;;;;;26.23;15.20;;;;;;;;;;4936609;29;20087;-51
2022/04/06 01:23:42;;;;;;;30.67;17.42;;;;;;;;;;4937120;29;20531;-51
2022/04/06 01:26:09;;;;;;;31.15;18.83;;;;;;;;;;4937098;29;20483;-52
2022/04/06 01:28:36;;;;;;;36.10;22.17;;;;;;;;;;4936697;29;20064;-53
2022/04/06 01:31:03;;;;;;;50.08;26.52;;;;;;;;;;4936644;29;20531;-53
2022/04/06 01:33:29;;;;;;;49.25;29.13;;;;;;;;;;4936931;29;20027;-49
2022/04/06 01:35:56;;;;;;;52.35;30.13;;;;;;;;;;4936623;29;20396;-51
2022/04/06 01:38:22;;;;;;;58.42;32.50;;;;;;;;;;4936827;29;20031;-52
2022/04/06 01:40:48;;;;;;;63.25;31.65;;;;;;;;;;4936795;29;20027;-53
2022/04/06 01:43:15;;;;;;;68.50;36.17;;;;;;;;;;4936431;29;20023;-55
2022/04/06 01:45:41;;;;;;;78.22;42.65;;;;;;;;;;4937590;29;20024;-54
2022/04/06 01:48:08;;;;;;;90.60;46.20;;;;;;;;;;4936638;29;20086;-53
2022/04/06 01:53:18;;;;;;;103.18;49.50;;;;;;;;;;4936456;29;20054;-55
2022/04/06 01:55:45;;;;;;;103.78;50.50;;;;;;;;;;4936674;29;20031;-54
2022/04/06 01:58:11;;;;;;;107.75;51.50;;;;;;;;;;4936312;29;20031;-53
2022/04/06 02:00:37;;;;;;;114.18;54.67;;;;;;;;;;4936890;29;20095;-55
2022/04/06 02:03:04;;;;;;;109.43;52.72;;;;;;;;;;4936430;29;20384;-53
2022/04/06 02:05:34;;;;;;;105.70;50.33;;;;;;;;;;4936176;29;20029;-55
2022/04/06 02:08:00;;;;;;;101.32;49.95;;;;;;;;;;4936563;29;20114;-54
2022/04/06 02:10:27;;;;;;;103.88;46.63;;;;;;;;;;4935909;29;20056;-55
2022/04/06 02:12:56;;;;;;;103.90;50.35;;;;;;;;;;4936345;29;20034;-54
2022/04/06 02:15:23;;;;;;;88.75;43.03;;;;;;;;;;4936452;29;20020;-55
2022/04/06 02:17:49;;;;;;;86.13;41.10;;;;;;;;;;4935906;29;20111;-51
2022/04/06 02:20:16;;;;;;;74.32;36.45;;;;;;;;;;4936411;29;20032;-51
2022/04/06 02:22:43;;;;;;;79.15;37.90;;;;;;;;;;4936404;29;20087;-53
2022/04/06 02:25:10;;;;;;;70.80;37.58;;;;;;;;;;4935994;29;20020;-53
2022/04/06 02:27:46;;;;;;;65.18;33.25;;;;;;;;;;4936320;29;20032;-49
2022/04/06 02:30:13;;;;;;;69.93;35.45;;;;;;;;;;4936311;29;20051;-49
2022/04/06 02:32:40;;;;;;;65.35;34.05;;;;;;;;;;4935916;29;20039;-54
2022/04/06 02:35:06;;;;;;;67.82;31.92;;;;;;;;;;4936809;29;20031;-53
2022/04/06 02:37:32;;;;;;;59.38;31.23;;;;;;;;;;4935958;29;20028;-49
2022/04/06 02:39:59;;;;;;;63.53;31.85;;;;;;;;;;4935110;29;20485;-54
2022/04/06 02:42:25;;;;;;;75.68;33.40;;;;;;;;;;4935643;29;20193;-52
2022/04/06 02:44:51;;;;;;;65.53;32.22;;;;;;;;;;4935901;29;20024;-53
2022/04/06 02:47:17;;;;;;;65.65;31.38;;;;;;;;;;4935532;29;20481;-55
2022/04/06 02:49:43;;;;;;;69.35;31.95;;;;;;;;;;4935863;29;20027;-53
2022/04/06 02:52:10;;;;;;;62.05;31.25;;;;;;;;;;4935957;29;20123;-54
2022/04/06 02:54:36;;;;;;;68.13;29.67;;;;;;;;;;4935741;29;20031;-53
2022/04/06 02:57:02;;;;;;;59.92;30.48;;;;;;;;;;4935995;29;20439;-52
2022/04/06 02:59:28;;;;;;;68.63;31.38;;;;;;;;;;4937462;29;20182;-54
2022/04/06 03:01:54;;;;;;;63.72;31.00;;;;;;;;;;4939667;29;20099;-55
2022/04/06 03:04:20;;;;;;;59.80;29.15;;;;;;;;;;4939540;29;20030;-54
2022/04/06 03:06:46;;;;;;;76.10;35.25;;;;;;;;;;4939252;29;20071;-52
2022/04/06 03:09:13;;;;;;;67.75;34.03;;;;;;;;;;4939274;29;20024;-53
2022/04/06 03:11:39;;;;;;;74.18;32.28;;;;;;;;;;4939517;29;20032;-55
2022/04/06 03:14:05;;;;;;;77.63;35.88;;;;;;;;;;4939198;29;20083;-52
2022/04/06 03:16:31;;;;;;;74.53;33.03;;;;;;;;;;4939739;29;20103;-52
2022/04/06 03:18:57;;;;;;;58.05;30.33;;;;;;;;;;4939680;29;20032;-51
2022/04/06 03:21:24;;;;;;;59.47;30.02;;;;;;;;;;4939292;29;20110;-50
2022/04/06 03:23:50;;;;;;;62.03;31.27;;;;;;;;;;4939064;29;20120;-51
2022/04/06 03:26:16;;;;;;;68.45;30.90;;;;;;;;;;4939246;29;20111;-50
2022/04/06 03:28:42;;;;;;;64.68;31.42;;;;;;;;;;4938960;29;20059;-55
2022/04/06 03:31:09;;;;;;;69.40;34.35;;;;;;;;;;4939031;29;20106;-53
2022/04/06 03:33:35;;;;;;;65.38;30.00;;;;;;;;;;4939180;29;20047;-53
2022/04/06 03:36:02;;;;;;;60.40;28.77;;;;;;;;;;4938452;29;20051;-56
2022/04/06 03:38:28;;;;;;;56.38;26.08;;;;;;;;;;4938712;29;20389;-51
2022/04/06 03:40:55;;;;;;;55.83;27.13;;;;;;;;;;4938877;29;20480;-51
2022/04/06 03:43:24;;;;;;;55.67;25.98;;;;;;;;;;4938365;29;20023;-50
2022/04/06 03:45:50;;;;;;;50.25;24.83;;;;;;;;;;4938912;29;20023;-51
2022/04/06 03:48:16;;;;;;;42.00;21.70;;;;;;;;;;4938302;29;20066;-52
2022/04/06 03:50:42;;;;;;;40.85;20.60;;;;;;;;;;4938565;29;20020;-49
2022/04/06 03:53:09;;;;;;;36.97;18.88;;;;;;;;;;4939009;29;20118;-53
2022/04/06 03:55:35;;;;;;;56.72;26.27;;;;;;;;;;4938428;29;20038;-49
2022/04/06 03:58:01;;;;;;;82.28;39.53;;;;;;;;;;4938413;29;20059;-55
2022/04/06 04:00:27;;;;;;;64.10;33.58;;;;;;;;;;4938573;29;20110;-49
2022/04/06 04:02:53;;;;;;;70.10;33.08;;;;;;;;;;4938230;29;20540;-52
2022/04/06 04:05:20;;;;;;;74.18;33.55;;;;;;;;;;4938541;29;20024;-53
2022/04/06 04:07:46;;;;;;;71.30;33.30;;;;;;;;;;4938468;29;20039;-53
2022/04/06 04:10:14;;;;;;;66.25;32.95;;;;;;;;;;4938742;29;20024;-50
2022/04/06 04:12:40;;;;;;;65.25;34.60;;;;;;;;;;4938375;29;20031;-53
2022/04/06 04:15:07;;;;;;;65.75;33.70;;;;;;;;;;4938519;29;20028;-56
2022/04/06 04:17:33;;;;;;;61.13;30.88;;;;;;;;;;4937985;29;20036;-52
2022/04/06 04:19:59;;;;;;;58.92;28.33;;;;;;;;;;4937928;29;20027;-56
2022/04/06 04:22:30;;;;;;;51.08;27.35;;;;;;;;;;4937951;29;20028;-51
2022/04/06 04:24:57;;;;;;;54.33;27.45;;;;;;;;;;4937746;29;20024;-52
2022/04/06 04:27:27;;;;;;;53.40;27.73;;;;;;;;;;4938197;29;20031;-54
2022/04/06 04:29:54;;;;;;;48.70;27.08;;;;;;;;;;4936540;29;20032;-54
2022/04/06 04:32:22;;;;;;;43.58;22.65;;;;;;;;;;4936911;29;20063;-51
2022/04/06 04:34:48;;;;;;;53.17;22.75;;;;;;;;;;4937953;29;20023;-54
2022/04/06 04:37:14;;;;;;;43.80;26.58;;;;;;;;;;4936896;29;20027;-55
2022/04/06 04:39:40;;;;;;;44.65;26.00;;;;;;;;;;4937528;29;20492;-55
2022/04/06 04:42:06;;;;;;;47.72;24.85;;;;;;;;;;4937743;29;20075;-53
2022/04/06 04:44:33;;;;;;;59.67;31.70;;;;;;;;;;4937594;29;20082;-53
2022/04/06 04:46:59;;;;;;;69.75;34.00;;;;;;;;;;4937716;29;20023;-53
2022/04/06 04:49:25;;;;;;;77.70;34.53;;;;;;;;;;4937406;29;20020;-55
2022/04/06 04:51:51;;;;;;;67.10;32.33;;;;;;;;;;4937289;29;20130;-56
2022/04/06 04:54:17;;;;;;;83.50;38.28;;;;;;;;;;4937622;29;20103;-53
2022/04/06 04:56:44;;;;;;;82.50;40.63;;;;;;;;;;4937871;29;20024;-53
2022/04/06 04:59:10;;;;;;;72.40;38.80;;;;;;;;;;4937180;29;20028;-55
2022/04/06 05:01:36;;;;;;;101.15;49.97;;;;;;;;;;4937277;29;20494;-54
2022/04/06 05:04:03;;;;;;;54.03;29.33;;;;;;;;;;4937203;29;20035;-55
2022/04/06 05:06:29;;;;;;;65.53;29.77;;;;;;;;;;4936810;29;20573;-50
2022/04/06 05:08:55;;;;;;;99.40;39.67;;;;;;;;;;4936781;29;20193;-52
2022/04/06 05:11:21;;;;;;;158.57;68.55;;;;;;;;;;4937568;29;20151;-55
2022/04/06 05:13:47;;;;;;;121.90;45.20;;;;;;;;;;4936834;29;20412;-52
2022/04/06 05:16:13;;;;;;;168.63;75.05;;;;;;;;;;4937276;29;20031;-49
2022/04/06 05:18:39;;;;;;;106.63;48.28;;;;;;;;;;4936741;29;20027;-55
2022/04/06 05:21:07;;;;;;;94.93;41.70;;;;;;;;;;4936202;29;20122;-54
2022/04/06 05:23:35;;;;;;;92.25;37.83;;;;;;;;;;4935684;29;20040;-52
2022/04/06 05:26:01;;;;;;;68.72;32.42;;;;;;;;;;4936796;29;20032;-54
2022/04/06 05:28:27;;;;;;;65.88;30.33;;;;;;;;;;4936389;29;20022;-54
2022/04/06 05:30:53;;;;;;;56.63;27.20;;;;;;;;;;4936721;29;20020;-56
2022/04/06 05:33:19;;;;;;;56.40;29.70;;;;;;;;;;4935889;29;20019;-54
2022/04/06 05:35:46;;;;;;;61.50;31.10;;;;;;;;;;4936548;29;20090;-55
2022/04/06 05:38:12;;;;;;;53.65;29.50;;;;;;;;;;4935119;29;20031;-57
2022/04/06 05:40:38;;;;;;;60.92;28.92;;;;;;;;;;4936725;29;20473;-54
2022/04/06 05:43:04;;;;;;;61.95;31.90;;;;;;;;;;4936814;29;20401;-54
2022/04/06 05:45:31;;;;;;;82.15;40.95;;;;;;;;;;4937014;29;20020;-54
2022/04/06 05:47:57;;;;;;;65.57;34.95;;;;;;;;;;4936434;29;20135;-55
2022/04/06 05:50:23;;;;;;;69.18;36.35;;;;;;;;;;4936225;29;20545;-51
2022/04/06 05:52:49;;;;;;;47.38;24.73;;;;;;;;;;4935968;29;20102;-51
2022/04/06 05:55:15;;;;;;;43.92;22.58;;;;;;;;;;4936315;29;20042;-54
2022/04/06 05:57:42;;;;;;;45.58;24.95;;;;;;;;;;4936791;29;20115;-54
2022/04/06 06:00:08;;;;;;;52.03;24.88;;;;;;;;;;4936257;29;20091;-51
2022/04/06 06:02:35;;;;;;;66.28;36.25;;;;;;;;;;4934661;29;20071;-55
2022/04/06 06:05:01;;;;;;;57.13;29.80;;;;;;;;;;4935939;29;20036;-56
2022/04/06 06:07:27;;;;;;;57.22;27.63;;;;;;;;;;4934919;29;20448;-55
2022/04/06 06:09:54;;;;;;;54.22;27.23;;;;;;;;;;4935711;29;20024;-55
2022/04/06 06:12:20;;;;;;;52.97;26.63;;;;;;;;;;4936288;29;20024;-54
2022/04/06 06:14:46;;;;;;;52.55;27.42;;;;;;;;;;4936191;29;20028;-54
2022/04/06 06:17:12;;;;;;;54.15;28.00;;;;;;;;;;4936154;29;20592;-55
2022/04/06 06:19:38;;;;;;;51.60;26.25;;;;;;;;;;4936255;29;20090;-54
2022/04/06 06:22:05;;;;;;;44.72;25.90;;;;;;;;;;4936079;29;20556;-54
2022/04/06 06:24:32;;;;;;;45.67;26.55;;;;;;;;;;4935965;29;20075;-53
2022/04/06 06:26:58;;;;;;;46.90;25.95;;;;;;;;;;4936501;29;20385;-55
2022/04/06 06:29:24;;;;;;;49.33;26.33;;;;;;;;;;4935989;29;20071;-55
2022/04/06 06:31:51;;;;;;;49.38;26.65;;;;;;;;;;4936051;29;20466;-56
2022/04/06 06:34:17;;;;;;;50.58;25.98;;;;;;;;;;4937867;29;20102;-54
2022/04/06 06:36:43;;;;;;;51.80;26.88;;;;;;;;;;4939642;29;20114;-54
2022/04/06 06:39:09;;;;;;;51.53;28.88;;;;;;;;;;4939960;29;20042;-55
2022/04/06 06:41:35;;;;;;;54.83;27.55;;;;;;;;;;4940534;29;20130;-53
2022/04/06 06:44:02;;;;;;;49.38;28.02;;;;;;;;;;4939441;29;20461;-56
2022/04/06 06:46:30;;;;;;;42.80;26.27;;;;;;;;;;4939623;29;20059;-54
2022/04/06 06:49:02;;;;;;;54.92;29.20;;;;;;;;;;4939955;29;20020;-53
2022/04/06 06:51:30;;;;;;;47.33;27.05;;;;;;;;;;4939622;29;20532;-52
2022/04/06 06:53:56;;;;;;;63.15;28.85;;;;;;;;;;4940358;29;20027;-55
2022/04/06 06:56:23;;;;;;;46.60;25.50;;;;;;;;;;4939557;29;20468;-55
2022/04/06 06:58:49;;;;;;;52.80;26.63;;;;;;;;;;4939405;29;20457;-53
2022/04/06 07:01:15;;;;;;;51.42;24.55;;;;;;;;;;4939796;29;20035;-53
2022/04/06 07:03:42;;;;;;;40.80;22.95;;;;;;;;;;4939775;29;20035;-55
2022/04/06 07:06:08;;;;;;;45.13;23.08;;;;;;;;;;4939389;29;20103;-55
2022/04/06 07:08:34;;;;;;;48.95;24.65;;;;;;;;;;4939329;29;20385;-53
2022/04/06 07:11:00;;;;;;;45.20;22.15;;;;;;;;;;4939295;29;20054;-52
2022/04/06 07:13:27;;;;;;;42.95;22.60;;;;;;;;;;4939202;29;20095;-54
2022/04/06 07:15:54;;;;;;;49.95;23.50;;;;;;;;;;4939482;29;20032;-54
2022/04/06 07:18:21;;;;;;;40.75;21.90;;;;;;;;;;4939029;29;20028;-54
2022/04/06 07:20:48;;;;;;;43.58;22.55;;;;;;;;;;4939084;29;20060;-51
2022/04/06 07:23:14;;;;;;;49.80;24.05;;;;;;;;;;4939340;29;20106;-52
2022/04/06 07:25:41;;;;;;;50.60;25.15;;;;;;;;;;4939023;29;20461;-51
2022/04/06 07:28:07;;;;;;;40.70;21.88;;;;;;;;;;4939719;29;20032;-52
2022/04/06 07:30:34;;;;;;;38.80;23.02;;;;;;;;;;4939700;29;20106;-54
2022/04/06 07:33:00;;;;;;;41.63;21.60;;;;;;;;;;4938795;29;20034;-57
2022/04/06 07:35:27;;;;;;;33.42;21.38;;;;;;;;;;4939404;29;20031;-54
2022/04/06 07:37:53;;;;;;;36.83;22.98;;;;;;;;;;4938990;29;20468;-55
2022/04/06 07:40:23;;;;;;;51.00;23.63;;;;;;;;;;4939136;29;20122;-53
2022/04/06 07:42:49;;;;;;;44.08;24.67;;;;;;;;;;4938697;29;20051;-56
2022/04/06 07:45:20;;;;;;;38.28;23.13;;;;;;;;;;4938254;29;20511;-55
2022/04/06 07:47:47;;;;;;;35.72;22.33;;;;;;;;;;4938541;29;20043;-55
2022/04/06 07:50:14;;;;;;;38.83;21.80;;;;;;;;;;4939143;29;20449;-56
2022/04/06 07:52:40;;;;;;;33.45;19.17;;;;;;;;;;4937597;29;20066;-56
2022/04/06 07:55:07;;;;;;;25.90;13.90;;;;;;;;;;4937137;29;20433;-52
2022/04/06 07:57:34;;;;;;;20.13;13.90;;;;;;;;;;4937339;29;20059;-56
2022/04/06 08:00:01;;;;;;;20.38;12.38;;;;;;;;;;4937677;29;20116;-57
2022/04/06 08:02:28;;;;;;;18.60;12.38;;;;;;;;;;4937259;29;20035;-55
2022/04/06 08:04:54;;;;;;;17.38;10.60;;;;;;;;;;4938114;29;20026;-55
2022/04/06 08:07:20;;;;;;;18.30;10.80;;;;;;;;;;4936973;29;20083;-55
2022/04/06 08:09:46;;;;;;;19.85;11.27;;;;;;;;;;4937365;29;20020;-55
2022/04/06 08:12:13;;;;;;;18.95;11.68;;;;;;;;;;4937641;29;20019;-51
2022/04/06 08:14:39;;;;;;;19.88;11.65;;;;;;;;;;4937062;29;20106;-55
2022/04/06 08:17:05;;;;;;;17.70;9.10;;;;;;;;;;4937129;29;20114;-55
2022/04/06 08:19:31;;;;;;;17.70;10.00;;;;;;;;;;4937589;29;20051;-54
2022/04/06 08:21:57;;;;;;;19.90;11.00;;;;;;;;;;4936935;29;20457;-51
2022/04/06 08:24:24;;;;;;;16.02;10.43;;;;;;;;;;4936975;29;20449;-54
2022/04/06 08:27:06;;;;;;;14.30;10.25;;;;;;;;;;4937193;29;20032;-55
2022/04/06 08:29:32;;;;;;;19.38;10.40;;;;;;;;;;4936811;29;20481;-54
2022/04/06 08:31:59;;;;;;;17.67;10.45;;;;;;;;;;4937061;29;20027;-54
2022/04/06 08:34:25;;;;;;;18.77;11.57;;;;;;;;;;4937085;29;20100;-56
2022/04/06 08:36:51;;;;;;;18.20;10.80;;;;;;;;;;4936820;29;20072;-54
2022/04/06 08:39:24;;;;;;;19.20;10.63;;;;;;;;;;4936960;29;20036;-56
2022/04/06 08:41:50;;;;;;;17.83;9.77;;;;;;;;;;4937124;29;20031;-55
2022/04/06 08:44:18;;;;;;;16.08;9.77;;;;;;;;;;4936522;29;20107;-55
2022/04/06 08:46:45;;;;;;;15.98;9.90;;;;;;;;;;4936983;29;20110;-53
2022/04/06 08:49:12;;;;;;;16.30;9.52;;;;;;;;;;4936692;29;20042;-52
2022/04/06 08:51:40;;;;;;;14.52;9.27;;;;;;;;;;4894101;29;1258064;-51
2022/04/06 08:54:06;;;;;;;14.93;9.07;;;;;;;;;;4937655;29;20606;-54
2022/04/06 08:56:32;;;;;;;14.55;9.15;;;;;;;;;;4936647;29;20488;-55
2022/04/06 08:59:00;;;;;;;15.75;9.27;;;;;;;;;;4937509;29;20032;-55
2022/04/06 09:01:31;;;;;;;39.20;17.10;;;;;;;;;;4937801;29;20087;-55
2022/04/06 09:03:59;;;;;;;43.20;20.63;;;;;;;;;;4937261;29;20020;-54
2022/04/06 09:06:29;;;;;;;17.48;10.07;;;;;;;;;;4937950;29;20086;-55
2022/04/06 09:08:55;;;;;;;25.80;10.30;;;;;;;;;;4937407;29;20027;-55
2022/04/06 09:11:21;;;;;;;36.13;16.90;;;;;;;;;;4936743;29;20023;-54
2022/04/06 09:13:49;;;;;;;27.08;11.13;;;;;;;;;;4937045;29;20373;-52
2022/04/06 09:16:16;;;;;;;22.20;9.52;;;;;;;;;;4937249;29;20030;-56
2022/04/06 09:18:46;;;;;;;22.58;10.63;;;;;;;;;;4936996;29;20079;-56
2022/04/06 09:21:16;;;;;;;14.15;5.80;;;;;;;;;;4937202;29;20488;-53
2022/04/06 09:23:45;;;;;;;18.52;8.55;;;;;;;;;;4937388;29;20373;-53
2022/04/06 09:26:12;;;;;;;14.73;7.50;;;;;;;;;;4936806;29;20038;-55
2022/04/06 09:28:47;;;;;;;14.43;7.60;;;;;;;;;;4937470;29;20042;-55
2022/04/06 09:31:17;;;;;;;14.13;6.20;;;;;;;;;;4936691;29;20030;-56
2022/04/06 09:33:55;;;;;;;72.50;44.22;;;;;;;;;;4937018;29;20504;-56
2022/04/06 09:36:21;;;;;;;22.20;10.23;;;;;;;;;;4937491;29;20031;-54
2022/04/06 09:38:48;;;;;;;18.67;9.05;;;;;;;;;;4936637;29;20031;-53
2022/04/06 09:41:15;;;;;;;18.30;9.75;;;;;;;;;;4936826;29;20030;-56
2022/04/06 09:43:44;;;;;;;11.27;6.53;;;;;;;;;;4936877;29;20035;-54
2022/04/06 09:49:18;;;;;;;27.52;10.70;;;;;;;;;;4936621;29;20042;-53
2022/04/06 09:51:45;;;;;;;18.15;9.75;;;;;;;;;;4936881;29;20060;-54
2022/04/06 09:54:12;;;;;;;19.42;7.30;;;;;;;;;;4936163;29;20521;-54
2022/04/06 09:56:39;;;;;;;12.15;6.00;;;;;;;;;;4936692;29;20034;-54
2022/04/06 09:59:06;;;;;;;10.18;6.03;;;;;;;;;;4936157;29;20029;-52
2022/04/06 10:01:37;;;;;;;8.27;5.25;;;;;;;;;;4936256;29;20564;-55
2022/04/06 10:04:04;;;;;;;13.35;8.05;;;;;;;;;;4937145;29;20039;-51
2022/04/06 10:06:40;;;;;;;8.05;4.57;;;;;;;;;;4936201;29;20042;-55
2022/04/06 10:09:07;;;;;;;9.52;5.47;;;;;;;;;;4936946;29;20377;-56
2022/04/06 10:11:34;;;;;;;10.23;6.75;;;;;;;;;;4936464;29;20035;-54
2022/04/06 10:14:01;;;;;;;6.60;4.38;;;;;;;;;;4936182;29;20036;-55
2022/04/06 10:16:27;;;;;;;7.32;4.22;;;;;;;;;;4936571;29;20376;-57
2022/04/06 10:18:55;;;;;;;6.30;3.85;;;;;;;;;;4936312;29;20480;-54
2022/04/06 10:21:24;;;;;;;6.45;3.55;;;;;;;;;;4936080;29;20027;-56
2022/04/06 10:23:56;;;;;;;6.22;3.25;;;;;;;;;;4936317;29;20030;-54
2022/04/06 10:26:27;;;;;;;6.38;3.38;;;;;;;;;;4936381;29;20499;-54
2022/04/06 10:28:54;;;;;;;6.03;2.70;;;;;;;;;;4935953;29;20046;-52
2022/04/06 10:31:24;;;;;;;5.75;3.58;;;;;;;;;;4936550;29;20051;-55
2022/04/06 10:33:51;;;;;;;12.73;5.87;;;;;;;;;;4936625;29;20457;-54
2022/04/06 10:36:17;;;;;;;8.02;3.55;;;;;;;;;;4936321;29;20483;-55
2022/04/06 10:39:02;;;;;;;6.22;3.67;;;;;;;;;;4935853;29;20477;-55
2022/04/06 10:41:29;;;;;;;6.38;3.97;;;;;;;;;;4935982;29;20046;-54
2022/04/06 10:43:56;;;;;;;10.05;3.67;;;;;;;;;;4936107;29;20063;-55
2022/04/06 10:46:35;;;;;;;4.30;3.13;;;;;;;;;;4935891;29;20027;-56
2022/04/06 10:49:08;;;;;;;6.45;3.45;;;;;;;;;;4936244;29;20035;-55
2022/04/06 10:51:39;;;;;;;6.40;2.60;;;;;;;;;;4936430;29;20107;-56
2022/04/06 10:54:14;;;;;;;8.40;3.80;;;;;;;;;;4936738;29;20491;-53
2022/04/06 10:56:49;;;;;;;8.02;4.40;;;;;;;;;;4935776;29;20032;-53
2022/04/06 10:59:16;;;;;;;4.78;2.50;;;;;;;;;;4936149;29;20038;-54
2022/04/06 11:01:48;;;;;;;3.35;2.00;;;;;;;;;;4936100;29;20024;-50
2022/04/06 11:04:22;;;;;;;3.20;1.92;;;;;;;;;;4935640;29;20056;-54
2022/04/06 11:06:59;;;;;;;4.07;1.90;;;;;;;;;;4935786;29;20024;-52
2022/04/06 11:12:17;;;;;;;5.07;2.50;;;;;;;;;;4935814;29;20091;-53
2022/04/06 11:14:44;;;;;;;3.65;2.10;;;;;;;;;;4936232;29;20389;-53
2022/04/06 11:17:30;;;;;;;6.93;3.25;;;;;;;;;;4935670;29;20036;-56
2022/04/06 11:19:57;;;;;;;4.25;2.22;;;;;;;;;;4936844;29;20040;-55
2022/04/06 11:22:23;;;;;;;4.25;1.55;;;;;;;;;;4939117;29;20031;-54
2022/04/06 11:24:49;;;;;;;3.10;2.00;;;;;;;;;;4938724;29;20098;-55
2022/04/06 11:27:36;;;;;;;2.80;1.95;;;;;;;;;;4939271;29;20080;-56
2022/04/06 11:30:04;;;;;;;4.63;2.03;;;;;;;;;;4939288;29;20023;-58
2022/04/06 11:32:30;;;;;;;7.43;2.35;;;;;;;;;;4939229;29;20111;-57
2022/04/06 11:35:00;;;;;;;6.65;2.63;;;;;;;;;;4939109;29;20042;-54
2022/04/06 11:37:26;;;;;;;9.77;2.00;;;;;;;;;;4938839;29;20087;-57
2022/04/06 11:40:01;;;;;;;7.07;3.75;;;;;;;;;;4938828;29;20058;-54
2022/04/06 11:42:28;;;;;;;5.50;2.80;;;;;;;;;;4939031;29;20130;-57
2022/04/06 11:44:54;;;;;;;5.00;2.33;;;;;;;;;;4938753;29;20034;-58
2022/04/06 11:47:34;;;;;;;7.57;2.63;;;;;;;;;;4938964;29;20027;-55
2022/04/06 11:50:00;;;;;;;5.95;2.30;;;;;;;;;;4939032;29;20056;-58
2022/04/06 11:52:28;;;;;;;4.55;2.20;;;;;;;;;;4938129;29;20048;-58
2022/04/06 11:54:55;;;;;;;5.40;1.77;;;;;;;;;;4939573;29;20028;-58
2022/04/06 11:57:32;;;;;;;4.20;2.00;;;;;;;;;;4938591;29;20030;-56
2022/04/06 11:59:58;;;;;;;2.65;2.17;;;;;;;;;;4938234;29;20028;-55
2022/04/06 12:02:24;;;;;;;7.57;2.78;;;;;;;;;;4938679;29;20436;-57
2022/04/06 12:05:01;;;;;;;3.15;2.67;;;;;;;;;;4938921;29;20424;-57
2022/04/06 12:07:27;;;;;;;2.45;1.73;;;;;;;;;;4937967;29;20114;-57
2022/04/06 12:09:53;;;;;;;3.63;2.28;;;;;;;;;;4938666;29;20023;-58
2022/04/06 12:12:20;;;;;;;2.50;2.20;;;;;;;;;;4938096;29;20043;-57
2022/04/06 12:14:47;;;;;;;5.28;2.78;;;;;;;;;;4938537;29;20035;-57
2022/04/06 12:17:14;;;;;;;3.05;2.22;;;;;;;;;;4937521;29;20122;-56
2022/04/06 12:19:40;;;;;;;3.72;2.63;;;;;;;;;;4936998;29;20023;-58
2022/04/06 12:22:07;;;;;;;3.30;2.33;;;;;;;;;;4937981;29;20079;-52
2022/04/06 12:24:37;;;;;;;11.10;6.05;;;;;;;;;;4938292;29;20031;-53
2022/04/06 12:27:04;;;;;;;6.80;3.85;;;;;;;;;;4937628;29;20028;-50
2022/04/06 12:29:32;;;;;;;4.63;2.50;;;;;;;;;;4938161;29;20027;-53
2022/04/06 12:31:59;;;;;;;13.35;8.52;;;;;;;;;;4936844;29;20024;-53
2022/04/06 12:34:32;;;;;;;4.70;2.97;;;;;;;;;;4937208;29;20031;-54
2022/04/06 12:36:58;;;;;;;7.18;4.25;;;;;;;;;;4938075;29;20413;-53
2022/04/06 12:39:25;;;;;;;5.93;3.33;;;;;;;;;;4937967;29;20035;-53
2022/04/06 12:42:05;;;;;;;4.70;2.72;;;;;;;;;;4938003;29;20059;-49
2022/04/06 12:44:32;;;;;;;8.50;3.13;;;;;;;;;;4937563;29;20023;-52
2022/04/06 12:46:58;;;;;;;5.03;2.83;;;;;;;;;;4937029;29;20016;-51
2022/04/06 12:49:41;;;;;;;7.38;2.92;;;;;;;;;;4937534;29;20060;-49
2022/04/06 12:52:18;;;;;;;5.43;2.63;;;;;;;;;;4938182;29;20109;-51
2022/04/06 12:54:47;;;;;;;5.60;3.25;;;;;;;;;;4937896;29;20039;-51
2022/04/06 12:57:14;;;;;;;5.95;2.72;;;;;;;;;;4937688;29;20180;-50
2022/04/06 12:59:42;;;;;;;4.18;3.20;;;;;;;;;;4937596;29;20027;-52
2022/04/06 13:02:37;;;;;;;10.23;3.08;;;;;;;;;;4937291;29;20035;-53
2022/04/06 13:05:04;;;;;;;5.57;3.05;;;;;;;;;;4925215;29;20035;-54
2022/04/06 13:07:30;;;;;;;4.97;3.00;;;;;;;;;;4937198;29;20028;-51
2022/04/06 13:09:57;;;;;;;5.05;2.90;;;;;;;;;;4935787;29;20020;-53
2022/04/06 13:12:27;;;;;;;6.57;2.95;;;;;;;;;;4937419;29;20114;-53
2022/04/06 13:14:54;;;;;;;6.95;2.65;;;;;;;;;;4937656;29;20111;-50
2022/04/06 13:17:20;;;;;;;6.68;3.63;;;;;;;;;;4936970;29;20028;-51
2022/04/06 13:19:47;;;;;;;6.15;3.08;;;;;;;;;;4937185;29;20187;-54
2022/04/06 13:22:13;;;;;;;4.57;2.80;;;;;;;;;;4936668;29;20028;-47
2022/04/06 13:24:40;;;;;;;11.50;2.80;;;;;;;;;;4937475;29;20503;-51
2022/04/06 13:27:06;;;;;;;5.40;2.90;;;;;;;;;;4937173;29;20043;-51
2022/04/06 13:29:33;;;;;;;6.07;2.55;;;;;;;;;;4936872;29;20395;-51
2022/04/06 13:32:00;;;;;;;4.88;2.75;;;;;;;;;;4937070;29;20042;-51
2022/04/06 13:34:26;;;;;;;5.38;2.85;;;;;;;;;;4937373;29;20110;-51
2022/04/06 13:36:52;;;;;;;4.82;2.80;;;;;;;;;;4936787;29;20107;-53
2022/04/06 13:39:18;;;;;;;6.78;3.33;;;;;;;;;;4936708;29;20111;-52
2022/04/06 13:41:45;;;;;;;4.68;3.05;;;;;;;;;;4935591;29;20425;-51
2022/04/06 13:44:12;;;;;;;5.00;3.00;;;;;;;;;;4936241;29;20031;-50
2022/04/06 13:46:38;;;;;;;4.05;3.15;;;;;;;;;;4936894;29;20084;-49
2022/04/06 13:49:05;;;;;;;5.65;3.25;;;;;;;;;;4936647;29;20531;-50
2022/04/06 13:51:34;;;;;;;7.65;3.25;;;;;;;;;;4936603;29;20094;-51
2022/04/06 13:54:00;;;;;;;5.97;3.45;;;;;;;;;;4937063;29;20346;-49
2022/04/06 13:56:26;;;;;;;6.63;3.80;;;;;;;;;;4936461;29;20031;-53
2022/04/06 13:58:53;;;;;;;5.63;3.08;;;;;;;;;;4936378;29;20110;-53
2022/04/06 14:01:19;;;;;;;4.63;3.15;;;;;;;;;;4937001;29;20110;-53
2022/04/06 14:03:45;;;;;;;5.70;4.10;;;;;;;;;;4936382;29;20106;-50
2022/04/06 14:06:13;;;;;;;9.55;3.67;;;;;;;;;;4936426;29;20114;-52
2022/04/06 14:08:39;;;;;;;5.07;3.22;;;;;;;;;;4936802;29;20039;-52
2022/04/06 14:11:06;;;;;;;7.28;3.40;;;;;;;;;;4936257;29;20115;-49
2022/04/06 14:13:32;;;;;;;6.95;3.60;;;;;;;;;;4936268;29;20032;-49
2022/04/06 14:15:59;;;;;;;8.88;3.92;;;;;;;;;;4936480;29;20103;-51
2022/04/06 14:18:25;;;;;;;6.40;3.97;;;;;;;;;;4936067;29;20123;-50
2022/04/06 14:20:51;;;;;;;7.10;4.97;;;;;;;;;;4936296;29;20028;-52
2022/04/06 14:23:17;;;;;;;5.22;4.20;;;;;;;;;;4936513;29;20083;-53
2022/04/06 14:25:43;;;;;;;7.88;3.63;;;;;;;;;;4936313;29;20035;-52
2022/04/06 14:28:10;;;;;;;5.20;3.38;;;;;;;;;;4936349;29;20380;-52
2022/04/06 14:30:36;;;;;;;5.13;3.85;;;;;;;;;;4936369;29;20074;-50
2022/04/06 14:33:02;;;;;;;8.77;2.65;;;;;;;;;;4935702;29;20340;-50
2022/04/06 14:35:29;;;;;;;5.90;2.88;;;;;;;;;;4936584;29;20036;-49
2022/04/06 14:37:55;;;;;;;5.25;3.47;;;;;;;;;;4935943;29;20028;-53